createdAt,value
2022-11-24T00:01:43.901Z,5.90
2022-11-24T00:04:16.524Z,5.10
2022-11-24T00:06:45.019Z,5.20
2022-11-24T00:09:13.228Z,5.27
2022-11-24T00:11:42.749Z,4.67
2022-11-24T00:14:11.892Z,4.53
2022-11-24T00:16:40.727Z,4.83
2022-11-24T00:19:12.683Z,4.50
2022-11-24T00:21:42.682Z,4.30
2022-11-24T00:24:11.473Z,3.63
2022-11-24T00:26:39.559Z,3.83
2022-11-24T00:29:10.576Z,3.30
2022-11-24T00:31:40.092Z,3.50
2022-11-24T00:34:11.660Z,3.37
2022-11-24T00:36:40.633Z,3.30
2022-11-24T00:39:12.847Z,3.40
2022-11-24T00:41:41.256Z,3.10
2022-11-24T00:44:11.304Z,3.30
2022-11-24T00:46:39.539Z,3.50
2022-11-24T00:49:08.228Z,3.47
2022-11-24T00:51:36.719Z,3.40
2022-11-24T00:54:06.377Z,3.10
2022-11-24T00:56:34.856Z,3.07
2022-11-24T00:59:02.829Z,3.30
2022-11-24T01:01:32.357Z,3.13
2022-11-24T01:04:02.715Z,3.10
2022-11-24T01:06:32.357Z,3.10
2022-11-24T01:09:01.502Z,3.27
2022-11-24T01:11:51.469Z,3.00
2022-11-24T01:14:20.610Z,3.17
2022-11-24T01:16:50.080Z,3.07
2022-11-24T01:19:18.094Z,3.13
2022-11-24T01:21:46.268Z,2.97
2022-11-24T01:24:14.965Z,3.33
2022-11-24T01:26:44.384Z,3.07
2022-11-24T01:29:13.023Z,3.00
2022-11-24T01:31:41.509Z,3.00
2022-11-24T01:34:10.973Z,2.63
2022-11-24T01:36:39.068Z,2.60
2022-11-24T01:39:07.572Z,2.53
2022-11-24T01:41:36.595Z,2.90
2022-11-24T01:44:23.249Z,3.07
2022-11-24T01:46:54.540Z,2.70
2022-11-24T01:49:38.791Z,2.90
2022-11-24T01:52:12.167Z,2.93
2022-11-24T01:54:47.857Z,2.70
2022-11-24T01:57:23.259Z,2.97
2022-11-24T01:59:54.955Z,2.77
2022-11-24T02:02:24.297Z,2.97
2022-11-24T02:04:54.048Z,3.00
2022-11-24T02:07:22.224Z,3.00
2022-11-24T02:09:54.131Z,3.10
2022-11-24T02:12:24.041Z,2.90
2022-11-24T02:14:54.343Z,3.10
2022-11-24T02:17:22.440Z,3.53
2022-11-24T02:19:56.150Z,3.57
2022-11-24T02:22:38.226Z,3.47
2022-11-24T02:25:13.260Z,3.70
2022-11-24T02:27:50.728Z,3.30
2022-11-24T02:30:21.841Z,3.63
2022-11-24T02:32:53.863Z,3.50
2022-11-24T02:35:22.480Z,3.60
2022-11-24T02:37:50.654Z,3.47
2022-11-24T02:40:25.063Z,3.33
2022-11-24T02:42:58.590Z,3.60
2022-11-24T02:45:29.063Z,3.40
2022-11-24T02:47:57.042Z,3.17
2022-11-24T02:50:28.253Z,3.13
2022-11-24T02:52:56.301Z,3.10
2022-11-24T02:55:24.997Z,3.20
2022-11-24T02:57:53.167Z,2.80
2022-11-24T03:00:23.113Z,3.00
2022-11-24T03:02:51.571Z,2.43
2022-11-24T03:05:19.959Z,2.90
2022-11-24T03:07:50.096Z,2.90
2022-11-24T03:10:18.638Z,2.23
2022-11-24T03:12:47.766Z,2.50
2022-11-24T03:15:15.979Z,2.50
2022-11-24T03:17:46.099Z,2.37
2022-11-24T03:20:14.577Z,3.20
2022-11-24T03:22:42.768Z,2.20
2022-11-24T03:25:11.270Z,2.40
2022-11-24T03:27:39.366Z,1.93
2022-11-24T03:30:12.432Z,1.93
2022-11-24T03:32:42.246Z,2.00
2022-11-24T03:35:12.150Z,2.03
2022-11-24T03:37:40.231Z,1.50
2022-11-24T03:40:09.176Z,1.70
2022-11-24T03:42:37.286Z,1.60
2022-11-24T03:47:54.288Z,1.40
2022-11-24T03:50:23.766Z,1.60
2022-11-24T03:52:51.828Z,1.50
2022-11-24T03:55:20.729Z,1.53
2022-11-24T03:57:48.951Z,1.80
2022-11-24T04:00:18.640Z,1.80
2022-11-24T04:02:48.192Z,1.30
2022-11-24T04:05:16.583Z,1.37
2022-11-24T04:07:46.874Z,1.47
2022-11-24T04:10:15.402Z,1.43
2022-11-24T04:12:45.033Z,1.70
2022-11-24T04:15:14.936Z,1.27
2022-11-24T04:17:44.200Z,1.50
2022-11-24T04:20:14.359Z,1.40
2022-11-24T04:22:42.937Z,1.57
2022-11-24T04:25:12.882Z,1.77
2022-11-24T04:27:41.932Z,1.60
2022-11-24T04:30:10.548Z,1.50
2022-11-24T04:32:39.264Z,1.50
2022-11-24T04:35:08.161Z,1.40
2022-11-24T04:37:37.586Z,1.50
2022-11-24T04:40:06.929Z,1.40
2022-11-24T04:42:36.523Z,1.60
2022-11-24T04:45:05.547Z,1.40
2022-11-24T04:47:34.144Z,1.57
2022-11-24T04:50:02.242Z,1.53
2022-11-24T04:52:32.100Z,1.50
2022-11-24T04:55:00.147Z,1.30
2022-11-24T04:57:28.619Z,1.47
2022-11-24T04:59:58.227Z,1.60
2022-11-24T05:02:26.369Z,1.50
2022-11-24T05:04:54.422Z,1.50
2022-11-24T05:07:22.640Z,1.50
2022-11-24T05:10:08.536Z,1.40
2022-11-24T05:12:36.605Z,1.47
2022-11-24T05:15:07.967Z,1.47
2022-11-24T05:17:37.724Z,1.50
2022-11-24T05:20:07.554Z,1.47
2022-11-24T05:22:36.170Z,1.53
2022-11-24T05:25:04.454Z,1.57
2022-11-24T05:27:32.511Z,1.50
2022-11-24T05:30:00.507Z,1.60
2022-11-24T05:32:29.962Z,1.80
2022-11-24T05:34:58.686Z,1.67
2022-11-24T05:37:26.818Z,1.40
2022-11-24T05:39:55.608Z,1.73
2022-11-24T05:42:46.763Z,1.67
2022-11-24T05:45:17.931Z,1.70
2022-11-24T05:47:48.070Z,1.50
2022-11-24T05:50:18.808Z,1.50
2022-11-24T05:52:47.488Z,1.70
2022-11-24T05:55:16.676Z,1.80
2022-11-24T05:57:45.214Z,1.77
2022-11-24T06:00:14.943Z,1.77
2022-11-24T06:02:43.253Z,1.73
2022-11-24T06:05:18.093Z,1.80
2022-11-24T06:07:47.025Z,1.77
2022-11-24T06:10:15.911Z,1.70
2022-11-24T06:12:43.946Z,1.77
2022-11-24T06:15:12.878Z,2.07
2022-11-24T06:17:41.559Z,2.63
2022-11-24T06:20:11.655Z,2.13
2022-11-24T06:22:41.069Z,2.23
2022-11-24T06:25:10.662Z,2.00
2022-11-24T06:27:38.769Z,2.10
2022-11-24T06:30:07.821Z,1.87
2022-11-24T06:32:36.093Z,2.10
2022-11-24T06:35:04.899Z,2.70
2022-11-24T06:37:32.966Z,2.17
2022-11-24T06:40:02.544Z,2.63
2022-11-24T06:42:33.644Z,2.10
2022-11-24T06:45:09.092Z,2.20
2022-11-24T06:47:37.850Z,2.27
2022-11-24T06:50:06.832Z,2.30
2022-11-24T06:52:34.846Z,2.50
2022-11-24T06:55:04.308Z,2.30
2022-11-24T06:57:32.748Z,2.27
2022-11-24T07:00:00.771Z,2.20
2022-11-24T07:02:28.847Z,2.20
2022-11-24T07:04:56.913Z,2.00
2022-11-24T07:07:25.846Z,2.93
2022-11-24T07:09:57.698Z,2.40
2022-11-24T07:12:27.165Z,2.20
2022-11-24T07:14:55.331Z,2.17
2022-11-24T07:17:23.416Z,2.17
2022-11-24T07:19:51.503Z,2.30
2022-11-24T07:22:21.837Z,2.80
2022-11-24T07:24:49.871Z,1.90
2022-11-24T07:27:17.945Z,1.93
2022-11-24T07:29:47.409Z,2.97
2022-11-24T07:32:20.387Z,2.47
2022-11-24T07:34:48.506Z,2.53
2022-11-24T07:37:18.067Z,2.40
2022-11-24T07:39:46.179Z,3.33
2022-11-24T07:42:14.211Z,4.73
2022-11-24T07:44:42.491Z,3.13
2022-11-24T07:47:11.913Z,5.57
2022-11-24T07:49:39.964Z,4.37
2022-11-24T07:52:09.517Z,6.00
2022-11-24T07:54:37.588Z,2.77
2022-11-24T07:57:05.783Z,3.43
2022-11-24T07:59:35.827Z,2.67
2022-11-24T08:02:03.998Z,2.43
2022-11-24T08:04:33.766Z,2.33
2022-11-24T08:07:03.183Z,2.20
2022-11-24T08:09:32.336Z,2.50
2022-11-24T08:12:00.450Z,2.30
2022-11-24T08:14:28.577Z,2.20
2022-11-24T08:16:56.680Z,2.33
2022-11-24T08:19:24.862Z,2.13
2022-11-24T08:21:54.650Z,2.43
2022-11-24T08:24:22.754Z,2.03
2022-11-24T08:26:50.734Z,2.27
2022-11-24T08:29:18.791Z,2.50
2022-11-24T08:31:46.989Z,2.13
2022-11-24T08:34:15.970Z,2.20
2022-11-24T08:36:44.005Z,2.10
2022-11-24T08:39:13.485Z,2.40
2022-11-24T08:41:41.531Z,1.90
2022-11-24T08:44:10.662Z,2.50
2022-11-24T08:46:39.296Z,2.47
2022-11-24T08:49:07.629Z,2.33
2022-11-24T08:51:35.734Z,2.57
2022-11-24T08:54:04.231Z,2.37
2022-11-24T08:56:34.872Z,2.10
2022-11-24T08:59:07.305Z,1.93
2022-11-24T09:01:35.862Z,2.23
2022-11-24T09:04:04.104Z,2.70
2022-11-24T09:06:32.406Z,2.63
2022-11-24T09:09:00.691Z,2.17
2022-11-24T09:11:34.323Z,2.17
2022-11-24T09:14:03.801Z,2.57
2022-11-24T09:16:32.099Z,3.93
2022-11-24T09:19:02.107Z,2.67
2022-11-24T09:21:31.486Z,2.47
2022-11-24T09:24:02.615Z,2.23
2022-11-24T09:26:32.277Z,2.43
2022-11-24T09:29:01.269Z,2.53
2022-11-24T09:31:33.585Z,3.00
2022-11-24T09:34:02.057Z,2.60
2022-11-24T09:36:32.037Z,2.20
2022-11-24T09:39:01.939Z,2.83
2022-11-24T09:41:54.735Z,2.53
2022-11-24T09:44:46.060Z,2.40
2022-11-24T09:47:26.151Z,2.67
2022-11-24T09:49:59.917Z,2.73
2022-11-24T09:52:40.283Z,2.90
2022-11-24T09:55:32.227Z,2.40
2022-11-24T09:58:11.751Z,2.93
2022-11-24T10:00:40.582Z,3.70
2022-11-24T10:03:23.504Z,3.40
2022-11-24T10:05:52.573Z,2.73
2022-11-24T10:08:48.470Z,2.67
2022-11-24T10:11:22.360Z,2.20
2022-11-24T10:14:08.587Z,2.10
2022-11-24T10:16:51.457Z,1.73
2022-11-24T10:19:38.853Z,2.07
2022-11-24T10:22:26.078Z,2.30
2022-11-24T10:25:04.852Z,2.17
2022-11-24T10:27:38.541Z,1.93
2022-11-24T10:33:14.335Z,2.00
2022-11-24T10:35:54.265Z,1.93
2022-11-24T10:38:34.441Z,2.30
2022-11-24T10:41:09.190Z,2.10
2022-11-24T10:43:38.787Z,1.97
2022-11-24T10:46:13.257Z,2.00
2022-11-24T10:48:46.192Z,2.20
2022-11-24T10:51:38.473Z,1.70
2022-11-24T10:54:13.431Z,1.70
2022-11-24T10:56:42.448Z,1.33
2022-11-24T10:59:37.516Z,1.50
2022-11-24T11:02:34.764Z,0.90
2022-11-24T11:05:42.103Z,1.03
2022-11-24T11:08:24.399Z,1.30
2022-11-24T11:11:12.954Z,1.50
2022-11-24T11:13:55.715Z,1.10
2022-11-24T11:16:33.573Z,1.30
2022-11-24T11:19:15.631Z,1.17
2022-11-24T11:22:01.587Z,1.40
2022-11-24T11:24:35.834Z,0.90
2022-11-24T11:27:06.513Z,1.17
2022-11-24T11:38:07.488Z,1.70
2022-11-24T11:40:37.785Z,1.40
2022-11-24T11:43:14.323Z,1.20
2022-11-24T11:45:46.657Z,1.50
2022-11-24T11:48:26.777Z,1.80
2022-11-24T11:51:23.705Z,2.00
2022-11-24T11:53:57.927Z,2.03
2022-11-24T11:56:33.738Z,2.37
2022-11-24T11:59:32.047Z,1.83
2022-11-24T12:02:31.239Z,1.50
2022-11-24T12:05:02.624Z,1.73
2022-11-24T12:07:53.430Z,1.90
2022-11-24T12:10:31.313Z,1.60
2022-11-24T12:13:23.713Z,1.50
2022-11-24T12:15:54.627Z,1.73
2022-11-24T12:21:31.171Z,1.20
2022-11-24T12:24:12.487Z,1.30
2022-11-24T12:26:44.060Z,1.37
2022-11-24T12:29:33.876Z,1.70
2022-11-24T12:32:10.792Z,1.63
2022-11-24T12:34:50.407Z,1.40
2022-11-24T12:37:33.937Z,1.40
2022-11-24T12:40:07.607Z,1.33
2022-11-24T12:42:44.846Z,1.40
2022-11-24T12:45:17.484Z,1.50
2022-11-24T12:48:13.326Z,1.50
2022-11-24T12:50:45.367Z,1.50
2022-11-24T12:53:17.167Z,1.43
2022-11-24T12:55:46.037Z,1.70
2022-11-24T12:58:21.529Z,1.83
2022-11-24T13:01:04.835Z,1.80
2022-11-24T13:03:42.306Z,1.30
2022-11-24T13:06:17.279Z,1.10
2022-11-24T13:08:48.879Z,1.10
2022-11-24T13:11:50.587Z,1.30
2022-11-24T13:14:23.804Z,1.00
2022-11-24T13:17:28.218Z,1.20
2022-11-24T13:19:47.212Z,1.10
2022-11-24T13:22:19.759Z,1.40
2022-11-24T13:25:10.265Z,1.67
2022-11-24T13:27:47.005Z,1.40
2022-11-24T13:30:48.634Z,1.67
2022-11-24T13:33:33.632Z,1.50
2022-11-24T13:36:56.623Z,1.33
2022-11-24T13:39:50.757Z,1.80
2022-11-24T13:42:41.554Z,1.53
2022-11-24T13:45:49.809Z,1.90
2022-11-24T13:48:51.398Z,1.37
2022-11-24T13:51:25.421Z,1.33
2022-11-24T13:53:57.137Z,1.90
2022-11-24T13:56:36.533Z,1.40
2022-11-24T13:59:18.748Z,1.63
2022-11-24T14:01:57.350Z,1.30
2022-11-24T14:04:32.021Z,1.47
2022-11-24T14:07:08.652Z,1.53
2022-11-24T14:09:43.606Z,1.40
2022-11-24T14:12:16.634Z,1.10
2022-11-24T14:14:46.214Z,1.10
2022-11-24T14:17:20.616Z,1.43
2022-11-24T14:19:50.328Z,1.43
2022-11-24T14:22:22.709Z,1.30
2022-11-24T14:24:56.219Z,1.43
2022-11-24T14:27:30.349Z,1.30
2022-11-24T14:30:00.759Z,1.30
2022-11-24T14:32:29.367Z,1.30
2022-11-24T14:34:57.602Z,1.07
2022-11-24T14:37:27.137Z,1.20
2022-11-24T14:39:59.505Z,1.20
2022-11-24T14:42:28.518Z,0.97
2022-11-24T14:44:58.992Z,1.30
2022-11-24T14:47:31.659Z,1.37
2022-11-24T14:50:11.631Z,1.80
2022-11-24T14:52:47.444Z,2.00
2022-11-24T14:55:29.830Z,2.70
2022-11-24T14:57:58.389Z,3.63
2022-11-24T15:00:30.117Z,2.83
2022-11-24T15:03:24.032Z,2.33
2022-11-24T15:05:55.048Z,2.70
2022-11-24T15:08:29.331Z,4.17
2022-11-24T15:11:00.734Z,4.00
2022-11-24T15:13:32.396Z,3.70
2022-11-24T15:16:05.154Z,3.10
2022-11-24T15:18:40.665Z,2.60
2022-11-24T15:21:15.594Z,3.20
2022-11-24T15:24:06.931Z,3.20
2022-11-24T15:26:40.216Z,3.40
2022-11-24T15:29:10.619Z,3.40
2022-11-24T15:31:39.642Z,3.63
2022-11-24T15:34:11.389Z,4.10
2022-11-24T15:36:39.812Z,5.77
2022-11-24T15:39:09.498Z,3.73
2022-11-24T15:41:37.820Z,4.03
2022-11-24T15:44:09.524Z,9.70
2022-11-24T15:46:39.687Z,19.87
2022-11-24T15:49:08.336Z,11.30
2022-11-24T15:51:37.101Z,12.20
2022-11-24T15:54:07.147Z,7.80
2022-11-24T15:56:38.192Z,5.17
2022-11-24T15:59:06.966Z,4.13
2022-11-24T16:01:35.523Z,4.20
2022-11-24T16:04:03.957Z,5.73
2022-11-24T16:06:32.221Z,4.53
2022-11-24T16:09:01.599Z,4.17
2022-11-24T16:11:29.757Z,3.97
2022-11-24T16:13:59.309Z,3.40
2022-11-24T16:16:27.494Z,3.03
2022-11-24T16:18:55.609Z,3.70
2022-11-24T16:21:24.064Z,3.63
2022-11-24T16:23:52.150Z,3.60
2022-11-24T16:26:20.209Z,3.60
2022-11-24T16:28:48.252Z,3.07
2022-11-24T16:31:19.918Z,3.07
2022-11-24T16:33:48.662Z,2.80
2022-11-24T16:36:16.997Z,2.50
2022-11-24T16:38:45.371Z,2.57
2022-11-24T16:41:16.580Z,2.20
2022-11-24T16:43:44.671Z,2.67
2022-11-24T16:46:22.551Z,2.20
2022-11-24T16:48:52.439Z,2.00
2022-11-24T16:51:22.194Z,2.20
2022-11-24T16:53:57.283Z,2.20
2022-11-24T16:56:25.886Z,1.80
2022-11-24T16:58:54.042Z,1.93
2022-11-24T17:01:24.015Z,2.33
2022-11-24T17:03:52.526Z,2.77
2022-11-24T17:06:20.641Z,11.03
2022-11-24T17:08:50.067Z,7.53
2022-11-24T17:11:19.685Z,3.67
2022-11-24T17:13:49.167Z,2.90
2022-11-24T17:16:19.420Z,3.50
2022-11-24T17:18:49.337Z,4.20
2022-11-24T17:21:18.748Z,4.80
2022-11-24T17:23:47.399Z,5.23
2022-11-24T17:26:20.259Z,6.47
2022-11-24T17:28:48.367Z,7.33
2022-11-24T17:31:23.069Z,9.17
2022-11-24T17:33:54.575Z,11.33
2022-11-24T17:36:23.359Z,9.30
2022-11-24T17:38:51.701Z,14.63
2022-11-24T17:41:20.440Z,11.57
2022-11-24T17:43:55.605Z,14.50
2022-11-24T17:46:24.295Z,14.23
2022-11-24T17:48:56.972Z,10.33
2022-11-24T17:51:27.096Z,14.60
2022-11-24T17:53:57.740Z,12.30
2022-11-24T17:56:27.139Z,12.87
2022-11-24T17:58:56.332Z,10.87
2022-11-24T18:01:24.911Z,9.70
2022-11-24T18:03:54.771Z,6.47
2022-11-24T18:06:25.271Z,11.13
2022-11-24T18:08:54.616Z,7.73
2022-11-24T18:11:30.540Z,6.53
2022-11-24T18:14:02.104Z,6.70
2022-11-24T18:16:32.591Z,7.13
2022-11-24T18:19:11.497Z,7.73
2022-11-24T18:21:40.672Z,7.47
2022-11-24T18:24:09.671Z,9.57
2022-11-24T18:26:38.802Z,7.60
2022-11-24T18:29:07.963Z,8.90
2022-11-24T18:31:36.813Z,10.07
2022-11-24T18:34:07.174Z,10.37
2022-11-24T18:36:35.973Z,8.93
2022-11-24T18:39:04.672Z,8.97
2022-11-24T18:41:33.002Z,12.40
2022-11-24T18:44:02.474Z,12.33
2022-11-24T18:46:30.891Z,14.80
2022-11-24T18:48:59.202Z,14.60
2022-11-24T18:51:29.255Z,10.33
2022-11-24T18:53:58.256Z,10.20
2022-11-24T18:56:27.932Z,9.40
2022-11-24T18:59:00.487Z,16.77
2022-11-24T19:01:29.858Z,11.90
2022-11-24T19:03:59.756Z,9.07
2022-11-24T19:06:32.587Z,8.23
2022-11-24T19:09:02.344Z,7.67
2022-11-24T19:11:35.924Z,6.93
2022-11-24T19:14:05.274Z,6.67
2022-11-24T19:16:34.686Z,7.13
2022-11-24T19:19:03.408Z,6.30
2022-11-24T19:21:34.687Z,8.60
2022-11-24T19:24:07.397Z,6.50
2022-11-24T19:26:38.441Z,5.97
2022-11-24T19:29:07.581Z,6.13
2022-11-24T19:31:38.324Z,4.77
2022-11-24T19:34:08.081Z,5.87
2022-11-24T19:36:38.220Z,5.43
2022-11-24T19:39:09.412Z,6.30
2022-11-24T19:41:37.753Z,6.63
2022-11-24T19:44:08.257Z,9.23
2022-11-24T19:46:36.699Z,7.17
2022-11-24T19:49:05.231Z,6.60
2022-11-24T19:51:35.422Z,5.87
2022-11-24T19:54:07.328Z,6.70
2022-11-24T19:56:37.102Z,10.23
2022-11-24T19:59:07.501Z,11.60
2022-11-24T20:01:38.295Z,12.53
2022-11-24T20:04:09.048Z,12.23
2022-11-24T20:06:39.197Z,12.53
2022-11-24T20:09:13.803Z,9.90
2022-11-24T20:11:42.371Z,9.00
2022-11-24T20:14:14.201Z,8.50
2022-11-24T20:16:44.244Z,8.13
2022-11-24T20:19:14.103Z,7.80
2022-11-24T20:21:47.648Z,7.73
2022-11-24T20:24:18.929Z,7.70
2022-11-24T20:26:52.664Z,8.17
2022-11-24T20:29:21.393Z,7.97
2022-11-24T20:31:51.704Z,7.97
2022-11-24T20:34:20.562Z,7.67
2022-11-24T20:36:49.802Z,7.23
2022-11-24T20:39:21.512Z,7.27
2022-11-24T20:41:49.725Z,7.17
2022-11-24T20:44:21.285Z,7.83
2022-11-24T20:46:50.033Z,7.37
2022-11-24T20:49:20.425Z,7.57
2022-11-24T20:51:49.286Z,7.57
2022-11-24T20:54:19.537Z,7.70
2022-11-24T20:56:48.244Z,7.03
2022-11-24T20:59:18.719Z,7.10
2022-11-24T21:01:47.946Z,7.50
2022-11-24T21:04:21.727Z,7.90
2022-11-24T21:06:50.346Z,7.30
2022-11-24T21:09:20.246Z,7.67
2022-11-24T21:11:48.630Z,6.80
2022-11-24T21:14:17.043Z,7.20
2022-11-24T21:16:45.764Z,6.37
2022-11-24T21:19:18.154Z,6.60
2022-11-24T21:21:47.726Z,6.70
2022-11-24T21:24:17.537Z,7.10
2022-11-24T21:26:49.641Z,6.77
2022-11-24T21:29:20.289Z,7.13
2022-11-24T21:31:48.660Z,6.60
2022-11-24T21:34:18.626Z,7.30
2022-11-24T21:36:47.107Z,7.50
2022-11-24T21:39:17.867Z,9.13
2022-11-24T21:41:47.694Z,6.17
2022-11-24T21:44:17.345Z,6.00
2022-11-24T21:46:51.109Z,6.50
2022-11-24T21:49:24.073Z,6.97
2022-11-24T21:51:55.656Z,7.37
2022-11-24T21:54:24.379Z,6.87
2022-11-24T21:56:55.585Z,6.53
2022-11-24T21:59:23.913Z,6.90
2022-11-24T22:01:52.976Z,5.93
2022-11-24T22:04:21.253Z,5.70
2022-11-24T22:06:49.331Z,6.23
2022-11-24T22:09:18.506Z,5.53
2022-11-24T22:11:49.292Z,5.70
2022-11-24T22:14:19.750Z,5.53
2022-11-24T22:16:47.900Z,5.77
2022-11-24T22:19:16.134Z,5.93
2022-11-24T22:21:44.322Z,5.70
2022-11-24T22:24:12.762Z,5.70
2022-11-24T22:26:41.111Z,5.90
2022-11-24T22:29:09.473Z,5.40
2022-11-24T22:31:39.034Z,5.73
2022-11-24T22:34:07.525Z,5.40
2022-11-24T22:36:36.712Z,6.33
2022-11-24T22:39:07.712Z,6.23
2022-11-24T22:41:36.631Z,5.70
2022-11-24T22:44:05.490Z,6.13
2022-11-24T22:46:33.959Z,6.43
2022-11-24T22:49:03.735Z,6.43
2022-11-24T22:51:34.008Z,6.10
2022-11-24T22:54:03.730Z,6.00
2022-11-24T22:56:32.796Z,6.10
2022-11-24T22:59:01.641Z,5.90
2022-11-24T23:01:31.027Z,6.55
2022-11-24T23:03:59.576Z,6.33
2022-11-24T23:06:30.703Z,6.20
2022-11-24T23:09:00.324Z,6.17
2022-11-24T23:11:36.440Z,6.80
2022-11-24T23:14:07.673Z,6.73
2022-11-24T23:16:35.941Z,6.80
2022-11-24T23:19:04.192Z,6.53
2022-11-24T23:21:34.982Z,6.67
2022-11-24T23:24:04.630Z,6.87
2022-11-24T23:26:35.423Z,7.30
2022-11-24T23:29:03.885Z,6.90
2022-11-24T23:31:32.755Z,6.83
2022-11-24T23:34:02.163Z,6.87
2022-11-24T23:36:33.361Z,7.07
2022-11-24T23:39:03.903Z,7.57
2022-11-24T23:41:32.553Z,7.50
2022-11-24T23:44:00.607Z,7.60
2022-11-24T23:46:29.239Z,6.90
2022-11-24T23:48:58.741Z,7.47
2022-11-24T23:51:29.181Z,7.10
2022-11-24T23:53:59.507Z,7.63
2022-11-24T23:56:29.258Z,7.40
2022-11-24T23:58:57.320Z,7.87
